Aérodrome :
LOGIN :

S'inscrire | Disclaimer

   EN    FR    IT 

 










Légende :    VFR   VFR Marginal   IFR   IFR Intensif   IFR Très Intensif
Visi : 
Plafond : 
>= 8 km
>= 3000ft
5 à 8 km
1000 à 3000 ft
1500m à 5 km
500 à 1000 ft
800 à 1500m
200 à 500 ft
< 800m
< 200 ft
Symboles :   Orages  Brouillard  Fortes neiges  Fortes précipitations  Vent > 20 kt
SIGMETs :   Divers  Orages  Givrage  Turbulence  Onde Orograph.  Cendres Volcan.







- Altitude de l'aérodrome : 935 ft


EBFS - Florennes

DERNIER METAR :
  • 221034Z 17015KT 1200 -SN FEW008 BKN010 M04/M05 Q1005 AMB YLO TEMPO RED

METARs EXPIRÉS :
  • 221016Z 17016KT 7000 -SN FEW008 BKN010 BKN014 M04/M06 Q1006 GRN YLO TEMPO AMB
  • 220955Z 18014KT 7000 SCT010 BKN120 M04/M06 Q1006 GRN YLO TEMPO AMB
  • 220950Z 18014KT 7000 SCT010 BKN120 M04/M06 Q1006 GRN YLO TEMPO AMB
  • 220933Z 18013KT 7000 SCT010 BKN120 M04/M06 Q1006 GRN GRN
  • 220855Z 18015KT 7000 BR FEW010 SCT120 BKN220 M04/M06 Q1007 WHT WHT TEMPO GRN
  • 220825Z 18013KT 7000 BR FEW010 SCT150 BKN220 M05/M06 Q1007 WHT WHT TEMPO GRN
  • 220804Z 18013KT 5000 BR FEW012 BKN200 M05/M06 Q1007 WHT WHT TEMPO GRN
  • 220755Z 18014KT 4000 BR FEW012 BKN200 M05/M07 Q1007 GRN WHT TEMPO GRN

TAF TAF EBFS
Valide du 22 à 10h jusqu'au 22 à 19h UTC


220841Z 2210/2219 18015KT 5000 BR SCT010 BKN015
BECMG 2210/2212 3000 -SN BKN005 BKN008
TEMPO 2212/2218 18015G25KT 1200 SN BKN002 BKN004
PROB30
TEMPO 2212/2218 500 +SN BKN001 BKN003
Pas de NOTAMs connus pour ce terrain.



MET'MAP, la Météo Aéronautique d'un coup d'oeil ! - Copyright ORBIFLY Décembre 2007 - Disclaimer

ORBIFLY MET'MAP TEAM :

Programmation & Développement : Alexandra Zaïnal
Conception & Développement : Baudouin d'Aumeries
Co-Programmation & Développement : Marc-Olivier Méhu
Soutien technique & logistique : Manuel Goepfert

Contact : metmap@orbifly.com




SOURCES & CREDITS :

   NOAA